sensor_id;sensor_type;location;lat;lon;timestamp;temperature;humidity
34231;DHT22;21574;51.538;-0.084;2022-08-18T00:00:28;27.40;58.30
34231;DHT22;21574;51.538;-0.084;2022-08-18T00:02:54;27.40;58.40
34231;DHT22;21574;51.538;-0.084;2022-08-18T00:05:20;27.40;58.50
34231;DHT22;21574;51.538;-0.084;2022-08-18T00:07:45;27.40;58.50
34231;DHT22;21574;51.538;-0.084;2022-08-18T00:10:11;27.40;58.80
34231;DHT22;21574;51.538;-0.084;2022-08-18T00:12:38;27.40;58.70
34231;DHT22;21574;51.538;-0.084;2022-08-18T00:15:07;27.40;58.20
34231;DHT22;21574;51.538;-0.084;2022-08-18T00:17:34;27.40;58.40
34231;DHT22;21574;51.538;-0.084;2022-08-18T00:20:00;27.40;58.30
34231;DHT22;21574;51.538;-0.084;2022-08-18T00:22:26;27.40;58.40
34231;DHT22;21574;51.538;-0.084;2022-08-18T00:24:54;27.40;58.20
34231;DHT22;21574;51.538;-0.084;2022-08-18T00:27:21;27.40;58.20
34231;DHT22;21574;51.538;-0.084;2022-08-18T00:29:47;27.40;58.30
34231;DHT22;21574;51.538;-0.084;2022-08-18T00:32:14;27.40;58.20
34231;DHT22;21574;51.538;-0.084;2022-08-18T00:34:39;27.40;58.20
34231;DHT22;21574;51.538;-0.084;2022-08-18T00:37:05;27.40;58.30
34231;DHT22;21574;51.538;-0.084;2022-08-18T00:39:30;27.40;58.20
34231;DHT22;21574;51.538;-0.084;2022-08-18T00:41:58;27.40;58.20
34231;DHT22;21574;51.538;-0.084;2022-08-18T00:44:24;27.40;58.30
34231;DHT22;21574;51.538;-0.084;2022-08-18T00:46:49;27.40;58.20
34231;DHT22;21574;51.538;-0.084;2022-08-18T00:49:15;27.40;58.20
34231;DHT22;21574;51.538;-0.084;2022-08-18T00:51:44;27.40;58.20
34231;DHT22;21574;51.538;-0.084;2022-08-18T00:54:13;27.40;58.20
34231;DHT22;21574;51.538;-0.084;2022-08-18T00:56:42;27.40;58.20
34231;DHT22;21574;51.538;-0.084;2022-08-18T00:59:10;27.40;58.20
34231;DHT22;21574;51.538;-0.084;2022-08-18T01:01:37;27.40;58.20
34231;DHT22;21574;51.538;-0.084;2022-08-18T01:04:08;27.40;58.20
34231;DHT22;21574;51.538;-0.084;2022-08-18T01:06:43;27.30;58.20
34231;DHT22;21574;51.538;-0.084;2022-08-18T01:09:10;27.40;58.20
34231;DHT22;21574;51.538;-0.084;2022-08-18T01:11:36;27.40;58.60
34231;DHT22;21574;51.538;-0.084;2022-08-18T01:14:03;27.40;58.90
34231;DHT22;21574;51.538;-0.084;2022-08-18T01:16:29;27.30;58.60
34231;DHT22;21574;51.538;-0.084;2022-08-18T01:19:13;27.30;58.40
34231;DHT22;21574;51.538;-0.084;2022-08-18T01:21:59;27.30;58.70
34231;DHT22;21574;51.538;-0.084;2022-08-18T01:24:27;27.30;58.10
34231;DHT22;21574;51.538;-0.084;2022-08-18T01:27:14;27.30;58.10
34231;DHT22;21574;51.538;-0.084;2022-08-18T01:29:46;27.30;58.10
34231;DHT22;21574;51.538;-0.084;2022-08-18T01:32:19;27.30;58.30
34231;DHT22;21574;51.538;-0.084;2022-08-18T01:34:46;27.30;58.20
34231;DHT22;21574;51.538;-0.084;2022-08-18T01:37:19;27.30;58.20
34231;DHT22;21574;51.538;-0.084;2022-08-18T01:39:45;27.30;58.20
34231;DHT22;21574;51.538;-0.084;2022-08-18T01:42:11;27.30;58.10
34231;DHT22;21574;51.538;-0.084;2022-08-18T01:44:37;27.30;58.10
34231;DHT22;21574;51.538;-0.084;2022-08-18T01:47:06;27.30;58.30
34231;DHT22;21574;51.538;-0.084;2022-08-18T01:49:31;27.30;58.20
34231;DHT22;21574;51.538;-0.084;2022-08-18T01:51:57;27.30;58.20
34231;DHT22;21574;51.538;-0.084;2022-08-18T01:54:22;27.30;58.20
34231;DHT22;21574;51.538;-0.084;2022-08-18T01:56:48;27.30;58.10
34231;DHT22;21574;51.538;-0.084;2022-08-18T01:59:14;27.30;58.10
34231;DHT22;21574;51.538;-0.084;2022-08-18T02:01:41;27.30;58.10
34231;DHT22;21574;51.538;-0.084;2022-08-18T02:04:07;27.30;58.10
34231;DHT22;21574;51.538;-0.084;2022-08-18T02:06:33;27.30;58.20
34231;DHT22;21574;51.538;-0.084;2022-08-18T02:08:59;27.30;58.10
34231;DHT22;21574;51.538;-0.084;2022-08-18T02:11:24;27.30;58.10
34231;DHT22;21574;51.538;-0.084;2022-08-18T02:13:49;27.30;58.10
34231;DHT22;21574;51.538;-0.084;2022-08-18T02:16:15;27.30;58.20
34231;DHT22;21574;51.538;-0.084;2022-08-18T02:18:41;27.30;58.10
34231;DHT22;21574;51.538;-0.084;2022-08-18T02:21:09;27.30;58.10
34231;DHT22;21574;51.538;-0.084;2022-08-18T02:23:35;27.30;58.10
34231;DHT22;21574;51.538;-0.084;2022-08-18T02:26:04;27.30;58.20
34231;DHT22;21574;51.538;-0.084;2022-08-18T02:28:30;27.30;58.20
34231;DHT22;21574;51.538;-0.084;2022-08-18T02:30:56;27.30;58.20
34231;DHT22;21574;51.538;-0.084;2022-08-18T02:33:21;27.30;58.10
34231;DHT22;21574;51.538;-0.084;2022-08-18T02:35:52;27.30;58.10
34231;DHT22;21574;51.538;-0.084;2022-08-18T02:38:17;27.30;58.20
34231;DHT22;21574;51.538;-0.084;2022-08-18T02:40:43;27.30;58.10
34231;DHT22;21574;51.538;-0.084;2022-08-18T02:43:10;27.30;58.10
34231;DHT22;21574;51.538;-0.084;2022-08-18T02:45:36;27.30;58.10
34231;DHT22;21574;51.538;-0.084;2022-08-18T02:48:02;27.30;58.10
34231;DHT22;21574;51.538;-0.084;2022-08-18T02:50:28;27.30;58.10
34231;DHT22;21574;51.538;-0.084;2022-08-18T02:52:54;27.30;58.00
34231;DHT22;21574;51.538;-0.084;2022-08-18T02:55:19;27.30;58.00
34231;DHT22;21574;51.538;-0.084;2022-08-18T02:57:46;27.30;58.00
34231;DHT22;21574;51.538;-0.084;2022-08-18T03:00:14;27.30;58.10
34231;DHT22;21574;51.538;-0.084;2022-08-18T03:02:44;27.30;58.00
34231;DHT22;21574;51.538;-0.084;2022-08-18T03:05:09;27.30;58.00
34231;DHT22;21574;51.538;-0.084;2022-08-18T03:07:35;27.30;58.00
34231;DHT22;21574;51.538;-0.084;2022-08-18T03:10:00;27.30;58.00
34231;DHT22;21574;51.538;-0.084;2022-08-18T03:12:26;27.30;58.00
34231;DHT22;21574;51.538;-0.084;2022-08-18T03:14:51;27.30;58.00
34231;DHT22;21574;51.538;-0.084;2022-08-18T03:17:17;27.30;58.00
34231;DHT22;21574;51.538;-0.084;2022-08-18T03:19:42;27.20;58.00
34231;DHT22;21574;51.538;-0.084;2022-08-18T03:22:11;27.30;58.00
34231;DHT22;21574;51.538;-0.084;2022-08-18T03:24:36;27.30;58.00
34231;DHT22;21574;51.538;-0.084;2022-08-18T03:27:05;27.30;57.90
34231;DHT22;21574;51.538;-0.084;2022-08-18T03:29:31;27.30;58.20
34231;DHT22;21574;51.538;-0.084;2022-08-18T03:31:56;27.30;58.00
34231;DHT22;21574;51.538;-0.084;2022-08-18T03:34:22;27.30;58.00
34231;DHT22;21574;51.538;-0.084;2022-08-18T03:36:48;27.30;57.90
34231;DHT22;21574;51.538;-0.084;2022-08-18T03:39:14;27.30;57.90
34231;DHT22;21574;51.538;-0.084;2022-08-18T03:41:41;27.30;57.90
34231;DHT22;21574;51.538;-0.084;2022-08-18T03:44:08;27.30;58.00
34231;DHT22;21574;51.538;-0.084;2022-08-18T03:46:33;27.30;58.00
34231;DHT22;21574;51.538;-0.084;2022-08-18T03:48:59;27.30;57.90
34231;DHT22;21574;51.538;-0.084;2022-08-18T03:51:27;27.30;57.90
34231;DHT22;21574;51.538;-0.084;2022-08-18T03:53:54;27.30;57.90
34231;DHT22;21574;51.538;-0.084;2022-08-18T03:56:24;27.30;58.00
34231;DHT22;21574;51.538;-0.084;2022-08-18T03:58:51;27.30;58.00
34231;DHT22;21574;51.538;-0.084;2022-08-18T04:01:18;27.30;58.00
34231;DHT22;21574;51.538;-0.084;2022-08-18T04:03:44;27.30;58.00
34231;DHT22;21574;51.538;-0.084;2022-08-18T04:06:15;27.30;58.00
34231;DHT22;21574;51.538;-0.084;2022-08-18T04:08:40;27.30;58.00
34231;DHT22;21574;51.538;-0.084;2022-08-18T04:11:06;27.30;58.00
34231;DHT22;21574;51.538;-0.084;2022-08-18T04:13:31;27.20;58.00
34231;DHT22;21574;51.538;-0.084;2022-08-18T04:16:00;27.30;58.50
34231;DHT22;21574;51.538;-0.084;2022-08-18T04:18:26;27.30;58.20
34231;DHT22;21574;51.538;-0.084;2022-08-18T04:20:52;27.30;58.20
34231;DHT22;21574;51.538;-0.084;2022-08-18T04:23:19;27.30;58.20
34231;DHT22;21574;51.538;-0.084;2022-08-18T04:25:45;27.30;58.20
34231;DHT22;21574;51.538;-0.084;2022-08-18T04:28:19;27.30;58.20
34231;DHT22;21574;51.538;-0.084;2022-08-18T04:30:44;27.30;58.20
34231;DHT22;21574;51.538;-0.084;2022-08-18T04:33:10;27.30;58.70
34231;DHT22;21574;51.538;-0.084;2022-08-18T04:35:36;27.30;58.20
34231;DHT22;21574;51.538;-0.084;2022-08-18T04:38:02;27.30;58.10
34231;DHT22;21574;51.538;-0.084;2022-08-18T04:40:27;27.30;58.20
34231;DHT22;21574;51.538;-0.084;2022-08-18T04:42:53;27.30;58.20
34231;DHT22;21574;51.538;-0.084;2022-08-18T04:45:19;27.30;58.20
34231;DHT22;21574;51.538;-0.084;2022-08-18T04:47:44;27.30;58.20
34231;DHT22;21574;51.538;-0.084;2022-08-18T04:50:10;27.30;58.20
34231;DHT22;21574;51.538;-0.084;2022-08-18T04:52:36;27.40;58.40
34231;DHT22;21574;51.538;-0.084;2022-08-18T04:55:20;27.40;58.20
34231;DHT22;21574;51.538;-0.084;2022-08-18T04:57:45;27.40;58.60
34231;DHT22;21574;51.538;-0.084;2022-08-18T05:00:11;27.40;58.20
34231;DHT22;21574;51.538;-0.084;2022-08-18T05:02:38;27.40;58.70
34231;DHT22;21574;51.538;-0.084;2022-08-18T05:05:04;27.40;58.40
34231;DHT22;21574;51.538;-0.084;2022-08-18T05:07:29;27.40;58.20
34231;DHT22;21574;51.538;-0.084;2022-08-18T05:09:55;27.40;58.90
34231;DHT22;21574;51.538;-0.084;2022-08-18T05:12:21;27.40;59.10
34231;DHT22;21574;51.538;-0.084;2022-08-18T05:14:46;27.40;58.90
34231;DHT22;21574;51.538;-0.084;2022-08-18T05:17:15;27.40;59.00
34231;DHT22;21574;51.538;-0.084;2022-08-18T05:19:40;27.40;58.90
34231;DHT22;21574;51.538;-0.084;2022-08-18T05:22:08;27.30;58.80
34231;DHT22;21574;51.538;-0.084;2022-08-18T05:24:34;27.40;60.80
34231;DHT22;21574;51.538;-0.084;2022-08-18T05:27:00;27.40;60.00
34231;DHT22;21574;51.538;-0.084;2022-08-18T05:29:26;27.40;59.40
34231;DHT22;21574;51.538;-0.084;2022-08-18T05:31:53;27.40;59.30
34231;DHT22;21574;51.538;-0.084;2022-08-18T05:34:20;27.40;60.10
34231;DHT22;21574;51.538;-0.084;2022-08-18T05:44:13;27.40;59.60
34231;DHT22;21574;51.538;-0.084;2022-08-18T05:46:43;27.40;59.40
34231;DHT22;21574;51.538;-0.084;2022-08-18T05:49:10;27.40;59.40
34231;DHT22;21574;51.538;-0.084;2022-08-18T05:51:39;27.40;59.20
34231;DHT22;21574;51.538;-0.084;2022-08-18T05:54:05;27.40;59.20
34231;DHT22;21574;51.538;-0.084;2022-08-18T05:56:49;27.40;59.30
34231;DHT22;21574;51.538;-0.084;2022-08-18T05:59:24;27.40;59.50
34231;DHT22;21574;51.538;-0.084;2022-08-18T06:04:53;27.40;59.60
34231;DHT22;21574;51.538;-0.084;2022-08-18T06:09:54;27.40;59.30
34231;DHT22;21574;51.538;-0.084;2022-08-18T06:12:28;27.40;59.80
34231;DHT22;21574;51.538;-0.084;2022-08-18T06:15:17;27.40;60.00
34231;DHT22;21574;51.538;-0.084;2022-08-18T06:20:29;27.40;59.40
34231;DHT22;21574;51.538;-0.084;2022-08-18T06:23:13;27.40;59.70
34231;DHT22;21574;51.538;-0.084;2022-08-18T06:25:56;27.40;60.20
34231;DHT22;21574;51.538;-0.084;2022-08-18T06:28:34;27.40;59.90
34231;DHT22;21574;51.538;-0.084;2022-08-18T06:31:04;27.40;59.50
34231;DHT22;21574;51.538;-0.084;2022-08-18T06:36:07;27.40;59.60
34231;DHT22;21574;51.538;-0.084;2022-08-18T06:43:28;27.40;59.60
34231;DHT22;21574;51.538;-0.084;2022-08-18T06:45:56;27.40;59.50
34231;DHT22;21574;51.538;-0.084;2022-08-18T06:48:43;27.40;59.40
34231;DHT22;21574;51.538;-0.084;2022-08-18T06:51:07;27.40;59.80
34231;DHT22;21574;51.538;-0.084;2022-08-18T06:53:53;27.40;59.70
34231;DHT22;21574;51.538;-0.084;2022-08-18T06:56:20;27.40;59.70
34231;DHT22;21574;51.538;-0.084;2022-08-18T06:58:46;27.40;59.80
34231;DHT22;21574;51.538;-0.084;2022-08-18T07:01:12;27.40;59.70
34231;DHT22;21574;51.538;-0.084;2022-08-18T07:06:07;27.40;59.80
34231;DHT22;21574;51.538;-0.084;2022-08-18T07:08:36;27.40;59.80
34231;DHT22;21574;51.538;-0.084;2022-08-18T07:13:40;27.40;59.80
34231;DHT22;21574;51.538;-0.084;2022-08-18T07:18:50;27.40;59.80
34231;DHT22;21574;51.538;-0.084;2022-08-18T07:24:00;27.30;59.70
34231;DHT22;21574;51.538;-0.084;2022-08-18T07:26:26;27.40;59.70
34231;DHT22;21574;51.538;-0.084;2022-08-18T07:28:51;27.40;59.80
34231;DHT22;21574;51.538;-0.084;2022-08-18T07:31:22;27.40;60.00
34231;DHT22;21574;51.538;-0.084;2022-08-18T07:34:37;27.40;59.90
34231;DHT22;21574;51.538;-0.084;2022-08-18T07:36:46;27.40;59.90
34231;DHT22;21574;51.538;-0.084;2022-08-18T07:39:17;27.40;60.10
34231;DHT22;21574;51.538;-0.084;2022-08-18T07:42:27;27.40;60.00
34231;DHT22;21574;51.538;-0.084;2022-08-18T07:47:00;27.40;60.20
34231;DHT22;21574;51.538;-0.084;2022-08-18T07:49:32;27.40;60.40
34231;DHT22;21574;51.538;-0.084;2022-08-18T07:54:44;27.40;60.30
34231;DHT22;21574;51.538;-0.084;2022-08-18T07:59:41;27.40;60.20
34231;DHT22;21574;51.538;-0.084;2022-08-18T08:07:15;27.40;60.30
34231;DHT22;21574;51.538;-0.084;2022-08-18T08:12:26;27.40;60.40
34231;DHT22;21574;51.538;-0.084;2022-08-18T08:15:03;27.40;60.30
34231;DHT22;21574;51.538;-0.084;2022-08-18T08:30:10;27.40;60.30
34231;DHT22;21574;51.538;-0.084;2022-08-18T08:32:50;27.40;60.20
34231;DHT22;21574;51.538;-0.084;2022-08-18T08:35:32;27.40;60.30
34231;DHT22;21574;51.538;-0.084;2022-08-18T08:37:59;27.40;60.20
34231;DHT22;21574;51.538;-0.084;2022-08-18T08:40:31;27.40;60.10
34231;DHT22;21574;51.538;-0.084;2022-08-18T08:43:02;27.40;60.30
34231;DHT22;21574;51.538;-0.084;2022-08-18T08:45:29;27.40;59.50
34231;DHT22;21574;51.538;-0.084;2022-08-18T08:47:58;27.40;58.70
34231;DHT22;21574;51.538;-0.084;2022-08-18T08:50:25;27.40;58.90
34231;DHT22;21574;51.538;-0.084;2022-08-18T08:55:36;27.40;59.30
34231;DHT22;21574;51.538;-0.084;2022-08-18T08:58:12;27.40;59.40
34231;DHT22;21574;51.538;-0.084;2022-08-18T09:00:41;27.40;60.00
34231;DHT22;21574;51.538;-0.084;2022-08-18T09:03:21;27.50;60.50
34231;DHT22;21574;51.538;-0.084;2022-08-18T09:05:56;27.50;60.60
34231;DHT22;21574;51.538;-0.084;2022-08-18T09:19:11;27.60;56.70
34231;DHT22;21574;51.538;-0.084;2022-08-18T09:21:46;27.60;56.40
34231;DHT22;21574;51.538;-0.084;2022-08-18T09:29:21;27.70;56.50
34231;DHT22;21574;51.538;-0.084;2022-08-18T09:31:47;27.70;56.60
34231;DHT22;21574;51.538;-0.084;2022-08-18T09:34:20;27.70;56.80
34231;DHT22;21574;51.538;-0.084;2022-08-18T09:42:16;27.80;57.20
34231;DHT22;21574;51.538;-0.084;2022-08-18T09:47:13;27.80;57.10
34231;DHT22;21574;51.538;-0.084;2022-08-18T09:57:42;27.90;57.50
34231;DHT22;21574;51.538;-0.084;2022-08-18T10:23:53;28.10;57.60
34231;DHT22;21574;51.538;-0.084;2022-08-18T10:42:10;28.20;57.30
34231;DHT22;21574;51.538;-0.084;2022-08-18T10:44:39;28.30;57.30
34231;DHT22;21574;51.538;-0.084;2022-08-18T10:47:06;28.30;57.20
34231;DHT22;21574;51.538;-0.084;2022-08-18T10:49:33;28.30;57.20
34231;DHT22;21574;51.538;-0.084;2022-08-18T10:52:07;28.30;57.30
34231;DHT22;21574;51.538;-0.084;2022-08-18T10:57:08;28.40;57.30
34231;DHT22;21574;51.538;-0.084;2022-08-18T10:59:41;28.50;57.20
34231;DHT22;21574;51.538;-0.084;2022-08-18T11:02:12;28.50;57.20
34231;DHT22;21574;51.538;-0.084;2022-08-18T11:07:10;28.50;57.10
34231;DHT22;21574;51.538;-0.084;2022-08-18T11:09:39;28.50;57.10
34231;DHT22;21574;51.538;-0.084;2022-08-18T11:12:05;28.50;57.10
34231;DHT22;21574;51.538;-0.084;2022-08-18T11:19:47;28.60;57.00
34231;DHT22;21574;51.538;-0.084;2022-08-18T11:22:29;28.40;56.50
34231;DHT22;21574;51.538;-0.084;2022-08-18T11:24:55;28.30;56.90
34231;DHT22;21574;51.538;-0.084;2022-08-18T11:27:21;28.20;57.00
34231;DHT22;21574;51.538;-0.084;2022-08-18T11:29:48;28.10;57.20
34231;DHT22;21574;51.538;-0.084;2022-08-18T11:39:51;28.10;57.20
34231;DHT22;21574;51.538;-0.084;2022-08-18T11:42:18;28.10;57.20
34231;DHT22;21574;51.538;-0.084;2022-08-18T11:44:44;28.10;57.20
34231;DHT22;21574;51.538;-0.084;2022-08-18T11:47:17;28.10;57.10
34231;DHT22;21574;51.538;-0.084;2022-08-18T11:49:54;28.10;57.10
34231;DHT22;21574;51.538;-0.084;2022-08-18T11:52:27;28.10;57.10
34231;DHT22;21574;51.538;-0.084;2022-08-18T11:54:58;28.10;57.10
34231;DHT22;21574;51.538;-0.084;2022-08-18T11:57:38;28.10;57.30
34231;DHT22;21574;51.538;-0.084;2022-08-18T12:03:01;28.10;57.10
34231;DHT22;21574;51.538;-0.084;2022-08-18T12:05:28;28.20;56.50
34231;DHT22;21574;51.538;-0.084;2022-08-18T12:07:53;28.40;56.40
34231;DHT22;21574;51.538;-0.084;2022-08-18T12:12:45;28.50;56.40
34231;DHT22;21574;51.538;-0.084;2022-08-18T12:17:37;28.60;56.50
34231;DHT22;21574;51.538;-0.084;2022-08-18T12:20:04;28.70;56.40
34231;DHT22;21574;51.538;-0.084;2022-08-18T12:22:33;28.70;56.30
34231;DHT22;21574;51.538;-0.084;2022-08-18T12:25:00;28.80;56.30
34231;DHT22;21574;51.538;-0.084;2022-08-18T12:27:26;28.80;56.30
34231;DHT22;21574;51.538;-0.084;2022-08-18T12:29:53;28.80;56.40
34231;DHT22;21574;51.538;-0.084;2022-08-18T12:32:20;28.80;56.20
34231;DHT22;21574;51.538;-0.084;2022-08-18T12:34:46;28.90;56.30
34231;DHT22;21574;51.538;-0.084;2022-08-18T12:37:14;28.90;56.20
34231;DHT22;21574;51.538;-0.084;2022-08-18T12:39:40;29.00;56.20
34231;DHT22;21574;51.538;-0.084;2022-08-18T12:42:05;29.00;56.10
34231;DHT22;21574;51.538;-0.084;2022-08-18T12:44:31;29.00;56.10
34231;DHT22;21574;51.538;-0.084;2022-08-18T12:46:56;29.00;56.10
34231;DHT22;21574;51.538;-0.084;2022-08-18T12:49:22;29.10;56.10
34231;DHT22;21574;51.538;-0.084;2022-08-18T12:51:49;29.10;56.00
34231;DHT22;21574;51.538;-0.084;2022-08-18T12:54:15;29.10;55.90
34231;DHT22;21574;51.538;-0.084;2022-08-18T12:56:40;29.10;55.90
34231;DHT22;21574;51.538;-0.084;2022-08-18T12:59:07;29.10;55.90
34231;DHT22;21574;51.538;-0.084;2022-08-18T13:01:33;29.10;56.00
34231;DHT22;21574;51.538;-0.084;2022-08-18T13:03:59;29.10;55.80
34231;DHT22;21574;51.538;-0.084;2022-08-18T13:06:26;29.20;55.90
34231;DHT22;21574;51.538;-0.084;2022-08-18T13:08:51;29.20;55.70
34231;DHT22;21574;51.538;-0.084;2022-08-18T13:11:18;29.10;55.80
34231;DHT22;21574;51.538;-0.084;2022-08-18T13:13:44;29.20;55.90
34231;DHT22;21574;51.538;-0.084;2022-08-18T13:16:10;29.20;55.80
34231;DHT22;21574;51.538;-0.084;2022-08-18T13:18:36;29.30;55.90
34231;DHT22;21574;51.538;-0.084;2022-08-18T13:21:02;29.30;55.70
34231;DHT22;21574;51.538;-0.084;2022-08-18T13:23:28;29.30;55.60
34231;DHT22;21574;51.538;-0.084;2022-08-18T13:25:55;29.40;55.60
34231;DHT22;21574;51.538;-0.084;2022-08-18T13:28:21;29.30;55.40
34231;DHT22;21574;51.538;-0.084;2022-08-18T13:30:47;29.40;55.50
34231;DHT22;21574;51.538;-0.084;2022-08-18T13:33:18;29.40;55.50
34231;DHT22;21574;51.538;-0.084;2022-08-18T13:35:44;29.40;55.40
34231;DHT22;21574;51.538;-0.084;2022-08-18T13:38:14;29.40;55.40
34231;DHT22;21574;51.538;-0.084;2022-08-18T13:40:42;29.40;55.40
34231;DHT22;21574;51.538;-0.084;2022-08-18T13:43:09;29.40;55.30
34231;DHT22;21574;51.538;-0.084;2022-08-18T13:45:35;29.50;55.20
34231;DHT22;21574;51.538;-0.084;2022-08-18T13:48:01;29.50;55.00
34231;DHT22;21574;51.538;-0.084;2022-08-18T13:50:26;29.60;55.00
34231;DHT22;21574;51.538;-0.084;2022-08-18T13:52:52;29.60;55.00
34231;DHT22;21574;51.538;-0.084;2022-08-18T13:55:18;29.50;55.00
34231;DHT22;21574;51.538;-0.084;2022-08-18T13:57:45;29.50;55.00
34231;DHT22;21574;51.538;-0.084;2022-08-18T14:00:14;29.60;55.10
34231;DHT22;21574;51.538;-0.084;2022-08-18T14:02:40;29.60;55.00
34231;DHT22;21574;51.538;-0.084;2022-08-18T14:05:06;29.60;55.00
34231;DHT22;21574;51.538;-0.084;2022-08-18T14:07:33;29.60;54.90
34231;DHT22;21574;51.538;-0.084;2022-08-18T14:10:00;29.60;54.90
34231;DHT22;21574;51.538;-0.084;2022-08-18T14:12:25;29.60;54.90
34231;DHT22;21574;51.538;-0.084;2022-08-18T14:14:51;29.60;54.90
34231;DHT22;21574;51.538;-0.084;2022-08-18T14:17:17;29.60;54.80
34231;DHT22;21574;51.538;-0.084;2022-08-18T14:19:42;29.60;54.60
34231;DHT22;21574;51.538;-0.084;2022-08-18T14:22:26;29.70;54.70
34231;DHT22;21574;51.538;-0.084;2022-08-18T14:25:11;29.70;55.10
34231;DHT22;21574;51.538;-0.084;2022-08-18T14:27:55;29.80;54.50
34231;DHT22;21574;51.538;-0.084;2022-08-18T14:30:21;29.80;54.50
34231;DHT22;21574;51.538;-0.084;2022-08-18T14:32:46;29.80;54.50
34231;DHT22;21574;51.538;-0.084;2022-08-18T14:35:12;29.80;54.50
34231;DHT22;21574;51.538;-0.084;2022-08-18T14:37:38;29.80;54.50
34231;DHT22;21574;51.538;-0.084;2022-08-18T14:40:04;29.90;54.40
34231;DHT22;21574;51.538;-0.084;2022-08-18T14:42:30;29.90;54.40
34231;DHT22;21574;51.538;-0.084;2022-08-18T14:44:55;29.90;54.30
34231;DHT22;21574;51.538;-0.084;2022-08-18T14:47:22;29.90;54.30
34231;DHT22;21574;51.538;-0.084;2022-08-18T14:49:51;29.90;54.80
34231;DHT22;21574;51.538;-0.084;2022-08-18T14:52:17;29.90;54.20
34231;DHT22;21574;51.538;-0.084;2022-08-18T14:54:42;29.90;54.40
34231;DHT22;21574;51.538;-0.084;2022-08-18T14:57:08;29.90;54.40
34231;DHT22;21574;51.538;-0.084;2022-08-18T14:59:36;29.90;54.30
34231;DHT22;21574;51.538;-0.084;2022-08-18T15:02:02;29.90;54.40
34231;DHT22;21574;51.538;-0.084;2022-08-18T15:04:28;29.90;54.40
34231;DHT22;21574;51.538;-0.084;2022-08-18T15:06:54;29.90;54.30
34231;DHT22;21574;51.538;-0.084;2022-08-18T15:09:19;29.90;54.20
34231;DHT22;21574;51.538;-0.084;2022-08-18T15:11:45;30.00;54.20
34231;DHT22;21574;51.538;-0.084;2022-08-18T15:14:10;30.00;54.20
34231;DHT22;21574;51.538;-0.084;2022-08-18T15:16:36;30.00;54.20
34231;DHT22;21574;51.538;-0.084;2022-08-18T15:19:02;30.00;54.20
34231;DHT22;21574;51.538;-0.084;2022-08-18T15:21:28;30.00;54.10
34231;DHT22;21574;51.538;-0.084;2022-08-18T15:24:11;30.00;54.10
34231;DHT22;21574;51.538;-0.084;2022-08-18T15:26:56;30.00;54.00
34231;DHT22;21574;51.538;-0.084;2022-08-18T15:29:22;30.10;54.00
34231;DHT22;21574;51.538;-0.084;2022-08-18T15:31:48;30.10;53.90
34231;DHT22;21574;51.538;-0.084;2022-08-18T15:34:15;30.10;53.80
34231;DHT22;21574;51.538;-0.084;2022-08-18T15:36:41;30.20;53.70
34231;DHT22;21574;51.538;-0.084;2022-08-18T15:39:06;30.20;53.60
34231;DHT22;21574;51.538;-0.084;2022-08-18T15:41:33;30.20;53.70
34231;DHT22;21574;51.538;-0.084;2022-08-18T15:44:00;30.20;53.60
34231;DHT22;21574;51.538;-0.084;2022-08-18T15:46:26;30.20;53.60
34231;DHT22;21574;51.538;-0.084;2022-08-18T15:48:52;30.20;53.50
34231;DHT22;21574;51.538;-0.084;2022-08-18T15:51:18;30.20;53.50
34231;DHT22;21574;51.538;-0.084;2022-08-18T15:53:44;30.20;53.60
34231;DHT22;21574;51.538;-0.084;2022-08-18T15:56:20;30.00;53.90
34231;DHT22;21574;51.538;-0.084;2022-08-18T15:58:47;29.80;54.20
34231;DHT22;21574;51.538;-0.084;2022-08-18T16:01:13;29.70;54.40
34231;DHT22;21574;51.538;-0.084;2022-08-18T16:03:38;29.60;54.30
34231;DHT22;21574;51.538;-0.084;2022-08-18T16:06:04;29.50;54.30
34231;DHT22;21574;51.538;-0.084;2022-08-18T16:08:30;29.50;54.40
34231;DHT22;21574;51.538;-0.084;2022-08-18T16:10:55;29.50;54.40
34231;DHT22;21574;51.538;-0.084;2022-08-18T16:13:21;29.50;54.40
34231;DHT22;21574;51.538;-0.084;2022-08-18T16:15:47;29.40;54.20
34231;DHT22;21574;51.538;-0.084;2022-08-18T16:18:15;29.40;54.30
34231;DHT22;21574;51.538;-0.084;2022-08-18T16:20:41;29.40;54.40
34231;DHT22;21574;51.538;-0.084;2022-08-18T16:23:07;29.40;54.30
34231;DHT22;21574;51.538;-0.084;2022-08-18T16:25:35;29.40;54.40
34231;DHT22;21574;51.538;-0.084;2022-08-18T16:28:02;29.30;54.30
34231;DHT22;21574;51.538;-0.084;2022-08-18T16:30:28;29.30;54.40
34231;DHT22;21574;51.538;-0.084;2022-08-18T16:32:53;29.30;54.30
34231;DHT22;21574;51.538;-0.084;2022-08-18T16:35:20;29.30;54.30
34231;DHT22;21574;51.538;-0.084;2022-08-18T16:37:46;29.30;54.40
34231;DHT22;21574;51.538;-0.084;2022-08-18T16:40:12;29.30;54.50
34231;DHT22;21574;51.538;-0.084;2022-08-18T16:42:38;29.30;54.60
34231;DHT22;21574;51.538;-0.084;2022-08-18T16:45:04;29.30;54.60
34231;DHT22;21574;51.538;-0.084;2022-08-18T16:47:33;29.30;54.60
34231;DHT22;21574;51.538;-0.084;2022-08-18T16:50:07;29.30;54.60
34231;DHT22;21574;51.538;-0.084;2022-08-18T16:52:33;29.40;54.50
34231;DHT22;21574;51.538;-0.084;2022-08-18T16:55:02;29.50;54.30
34231;DHT22;21574;51.538;-0.084;2022-08-18T16:57:28;29.60;54.30
34231;DHT22;21574;51.538;-0.084;2022-08-18T17:00:12;29.70;54.20
34231;DHT22;21574;51.538;-0.084;2022-08-18T17:03:01;29.70;54.20
34231;DHT22;21574;51.538;-0.084;2022-08-18T17:05:44;29.80;54.20
34231;DHT22;21574;51.538;-0.084;2022-08-18T17:08:10;29.80;54.00
34231;DHT22;21574;51.538;-0.084;2022-08-18T17:10:37;29.90;54.00
34231;DHT22;21574;51.538;-0.084;2022-08-18T17:13:04;29.90;54.00
34231;DHT22;21574;51.538;-0.084;2022-08-18T17:15:30;29.90;53.90
34231;DHT22;21574;51.538;-0.084;2022-08-18T17:17:56;29.90;53.90
34231;DHT22;21574;51.538;-0.084;2022-08-18T17:20:21;30.00;53.90
34231;DHT22;21574;51.538;-0.084;2022-08-18T17:22:47;30.00;53.80
34231;DHT22;21574;51.538;-0.084;2022-08-18T17:25:14;30.00;53.90
34231;DHT22;21574;51.538;-0.084;2022-08-18T17:27:40;30.00;53.70
34231;DHT22;21574;51.538;-0.084;2022-08-18T17:30:12;30.00;53.70
34231;DHT22;21574;51.538;-0.084;2022-08-18T17:32:40;29.90;53.50
34231;DHT22;21574;51.538;-0.084;2022-08-18T17:35:10;30.00;53.60
34231;DHT22;21574;51.538;-0.084;2022-08-18T17:37:38;30.00;53.60
34231;DHT22;21574;51.538;-0.084;2022-08-18T17:40:10;30.00;53.40
34231;DHT22;21574;51.538;-0.084;2022-08-18T17:42:37;30.10;53.30
34231;DHT22;21574;51.538;-0.084;2022-08-18T17:45:04;30.10;53.30
34231;DHT22;21574;51.538;-0.084;2022-08-18T17:47:31;30.10;53.30
34231;DHT22;21574;51.538;-0.084;2022-08-18T17:50:03;30.10;53.20
34231;DHT22;21574;51.538;-0.084;2022-08-18T17:52:51;30.10;53.10
34231;DHT22;21574;51.538;-0.084;2022-08-18T17:55:37;30.20;53.20
34231;DHT22;21574;51.538;-0.084;2022-08-18T17:58:49;30.20;53.70
34231;DHT22;21574;51.538;-0.084;2022-08-18T18:00:49;30.20;53.10
34231;DHT22;21574;51.538;-0.084;2022-08-18T18:03:14;30.10;53.30